Time;durP1;ratioP1;P1;durP2;ratioP2;P2;SDS_P1;SDS_P2;PMS_P1;PMS_P2;Temp;Humidity;BMP_temperature;BMP_pressure;BME280_temperature;BME280_humidity;BME280_pressure;Samples;Min_cycle;Max_cycle;Signal;HPM_P1;HPM_P2
2022/11/24 00:01:53;;;;;;;14.10;1.42;;;;;;;;;;5219370;28;20025;-73
2022/11/24 00:04:24;;;;;;;11.68;1.38;;;;;;;;;;5219796;28;20536;-73
2022/11/24 00:06:56;;;;;;;12.63;1.83;;;;;;;;;;5220092;28;20022;-73
2022/11/24 00:09:27;;;;;;;13.88;1.15;;;;;;;;;;5219025;28;20017;-73
2022/11/24 00:12:00;;;;;;;14.20;1.60;;;;;;;;;;5219865;28;20095;-73
2022/11/24 00:14:31;;;;;;;10.68;1.20;;;;;;;;;;5219821;28;20021;-74
2022/11/24 00:17:02;;;;;;;9.90;1.35;;;;;;;;;;5218939;28;20060;-74
2022/11/24 00:19:33;;;;;;;10.30;1.73;;;;;;;;;;5219693;28;20022;-74
2022/11/24 00:22:05;;;;;;;10.68;1.30;;;;;;;;;;5219819;28;20045;-73
2022/11/24 00:24:36;;;;;;;9.63;1.27;;;;;;;;;;5219215;28;20026;-74
2022/11/24 00:27:07;;;;;;;12.93;1.10;;;;;;;;;;5219693;28;20466;-73
2022/11/24 00:29:38;;;;;;;12.07;1.63;;;;;;;;;;5219331;28;20064;-73
2022/11/24 00:32:09;;;;;;;10.80;1.50;;;;;;;;;;5218833;28;20050;-73
2022/11/24 00:34:41;;;;;;;13.32;1.60;;;;;;;;;;5219361;28;20343;-73
2022/11/24 00:37:12;;;;;;;11.50;1.30;;;;;;;;;;5219302;28;20030;-72
2022/11/24 00:39:43;;;;;;;12.45;1.00;;;;;;;;;;5219097;28;20104;-74
2022/11/24 00:42:14;;;;;;;12.82;1.88;;;;;;;;;;5219841;28;20470;-74
2022/11/24 00:44:45;;;;;;;14.52;1.55;;;;;;;;;;5218515;28;20032;-72
2022/11/24 00:47:16;;;;;;;13.23;1.45;;;;;;;;;;5219716;28;20034;-72
2022/11/24 00:49:48;;;;;;;12.15;1.35;;;;;;;;;;5219190;28;20373;-72
2022/11/24 00:52:19;;;;;;;11.05;1.60;;;;;;;;;;5218781;28;20152;-72
2022/11/24 00:54:50;;;;;;;10.07;0.88;;;;;;;;;;5219216;28;20014;-72
2022/11/24 00:57:21;;;;;;;13.82;1.83;;;;;;;;;;5219426;28;20061;-73
2022/11/24 00:59:52;;;;;;;13.13;1.17;;;;;;;;;;5218740;28;20022;-73
2022/11/24 01:02:24;;;;;;;7.80;1.00;;;;;;;;;;5219263;28;20026;-73
2022/11/24 01:04:55;;;;;;;11.90;1.30;;;;;;;;;;5219735;28;20041;-73
2022/11/24 01:07:26;;;;;;;8.77;1.25;;;;;;;;;;5218329;28;20377;-72
2022/11/24 01:09:57;;;;;;;9.95;1.30;;;;;;;;;;5222834;28;20026;-72
2022/11/24 01:12:28;;;;;;;10.15;0.90;;;;;;;;;;5222294;28;20053;-72
2022/11/24 01:15:00;;;;;;;13.88;1.25;;;;;;;;;;5223132;28;20031;-72
2022/11/24 01:17:31;;;;;;;11.30;1.33;;;;;;;;;;5223003;28;20034;-72
2022/11/24 01:20:03;;;;;;;10.98;1.25;;;;;;;;;;5222609;28;20037;-73
2022/11/24 01:22:34;;;;;;;13.18;1.98;;;;;;;;;;5222868;28;20018;-72
2022/11/24 01:25:06;;;;;;;15.80;1.42;;;;;;;;;;5222805;28;20487;-72
2022/11/24 01:27:37;;;;;;;10.55;1.67;;;;;;;;;;5222041;28;20045;-72
2022/11/24 01:30:09;;;;;;;6.05;0.80;;;;;;;;;;5222773;28;20025;-72
2022/11/24 01:32:40;;;;;;;12.18;1.35;;;;;;;;;;5222506;28;20053;-72
2022/11/24 01:35:11;;;;;;;12.73;2.42;;;;;;;;;;5222314;28;20053;-72
2022/11/24 01:37:42;;;;;;;10.88;1.00;;;;;;;;;;5222304;28;20040;-72
2022/11/24 01:40:13;;;;;;;10.60;1.25;;;;;;;;;;5222891;28;20373;-72
2022/11/24 01:42:46;;;;;;;14.07;1.75;;;;;;;;;;5221442;28;20080;-72
2022/11/24 01:45:31;;;;;;;9.60;1.23;;;;;;;;;;5222981;28;20385;-73
2022/11/24 01:48:04;;;;;;;9.88;1.30;;;;;;;;;;5221709;28;20057;-73
2022/11/24 01:50:35;;;;;;;9.07;0.95;;;;;;;;;;5222242;28;20025;-73
2022/11/24 01:53:07;;;;;;;11.30;1.45;;;;;;;;;;5222487;28;20408;-73
2022/11/24 01:55:38;;;;;;;10.15;1.00;;;;;;;;;;5221575;28;20026;-73
2022/11/24 01:58:14;;;;;;;8.68;0.90;;;;;;;;;;5222427;28;20053;-72
2022/11/24 02:00:45;;;;;;;13.35;1.45;;;;;;;;;;5221965;28;20018;-73
2022/11/24 02:03:19;;;;;;;14.50;1.50;;;;;;;;;;5221633;28;20453;-73
2022/11/24 02:05:55;;;;;;;10.68;1.40;;;;;;;;;;5221726;28;20109;-72
2022/11/24 02:08:33;;;;;;;11.90;1.15;;;;;;;;;;5222272;28;20420;-73
2022/11/24 02:11:05;;;;;;;11.57;1.63;;;;;;;;;;5221956;28;20036;-72
2022/11/24 02:13:37;;;;;;;10.23;1.13;;;;;;;;;;5221918;28;20751;-73
2022/11/24 02:16:09;;;;;;;13.43;1.77;;;;;;;;;;5220855;28;20026;-73
2022/11/24 02:18:41;;;;;;;13.75;1.95;;;;;;;;;;5221498;28;20040;-73
2022/11/24 02:21:13;;;;;;;10.00;1.45;;;;;;;;;;5222163;28;20388;-73
2022/11/24 02:23:49;;;;;;;12.23;1.83;;;;;;;;;;5220750;28;20425;-73
2022/11/24 02:26:26;;;;;;;12.23;1.40;;;;;;;;;;5221745;28;20022;-73
2022/11/24 02:28:58;;;;;;;10.63;1.20;;;;;;;;;;5221893;28;20429;-74
2022/11/24 02:31:29;;;;;;;14.60;1.50;;;;;;;;;;5220868;28;20026;-73
2022/11/24 02:34:00;;;;;;;12.35;1.85;;;;;;;;;;5221713;28;20084;-73
2022/11/24 02:36:31;;;;;;;8.93;2.05;;;;;;;;;;5221507;28;20044;-72
2022/11/24 02:39:04;;;;;;;15.10;1.45;;;;;;;;;;5220925;28;20030;-73
2022/11/24 02:41:36;;;;;;;13.73;1.30;;;;;;;;;;5221387;28;20118;-73
2022/11/24 02:44:07;;;;;;;14.45;1.23;;;;;;;;;;5220778;28;20533;-73
2022/11/24 02:46:39;;;;;;;11.65;2.08;;;;;;;;;;5221170;28;20029;-73
2022/11/24 02:49:10;;;;;;;9.57;1.10;;;;;;;;;;5221617;28;20080;-73
2022/11/24 02:51:41;;;;;;;12.93;1.65;;;;;;;;;;5220171;28;20040;-72
2022/11/24 02:54:12;;;;;;;12.68;1.75;;;;;;;;;;5221657;28;20554;-72
2022/11/24 02:56:43;;;;;;;10.18;1.70;;;;;;;;;;5220817;28;20041;-72
2022/11/24 02:59:15;;;;;;;14.70;2.28;;;;;;;;;;5220687;28;20037;-72
2022/11/24 03:01:46;;;;;;;14.30;1.90;;;;;;;;;;5220883;28;20420;-72
2022/11/24 03:04:17;;;;;;;13.27;1.40;;;;;;;;;;5221503;28;20026;-72
2022/11/24 03:06:48;;;;;;;15.13;1.60;;;;;;;;;;5220099;28;20029;-72
2022/11/24 03:09:20;;;;;;;12.38;1.80;;;;;;;;;;5221089;28;20034;-73
2022/11/24 03:11:51;;;;;;;17.17;1.75;;;;;;;;;;5219705;28;20022;-73
2022/11/24 03:14:22;;;;;;;12.25;1.98;;;;;;;;;;5220902;28;20405;-72
2022/11/24 03:16:53;;;;;;;12.70;1.52;;;;;;;;;;5220857;28;20034;-72
2022/11/24 03:19:24;;;;;;;10.40;1.55;;;;;;;;;;5220042;28;20068;-73
2022/11/24 03:21:55;;;;;;;14.57;1.85;;;;;;;;;;5220830;28;20473;-72
2022/11/24 03:24:27;;;;;;;12.20;1.38;;;;;;;;;;5220510;28;20037;-73
2022/11/24 03:26:58;;;;;;;15.57;2.38;;;;;;;;;;5220044;28;20021;-72
2022/11/24 03:29:29;;;;;;;14.10;2.05;;;;;;;;;;5220826;28;20036;-74
2022/11/24 03:32:00;;;;;;;15.40;2.28;;;;;;;;;;5219874;28;20042;-73
2022/11/24 03:34:32;;;;;;;12.55;1.85;;;;;;;;;;5219734;28;20037;-73
2022/11/24 03:37:03;;;;;;;12.30;1.70;;;;;;;;;;5220406;28;20025;-72
2022/11/24 03:39:34;;;;;;;15.30;1.67;;;;;;;;;;5220650;28;20045;-72
2022/11/24 03:42:05;;;;;;;11.25;1.50;;;;;;;;;;5219703;28;20033;-72
2022/11/24 03:44:36;;;;;;;11.32;1.95;;;;;;;;;;5220204;28;20030;-72
2022/11/24 03:47:09;;;;;;;12.00;1.25;;;;;;;;;;5219448;28;20484;-73
2022/11/24 03:49:40;;;;;;;10.93;2.75;;;;;;;;;;5219869;28;20030;-73
2022/11/24 03:52:11;;;;;;;14.82;2.00;;;;;;;;;;5220699;28;20539;-73
2022/11/24 03:54:42;;;;;;;14.30;2.38;;;;;;;;;;5218908;28;20029;-73
2022/11/24 03:57:14;;;;;;;13.98;2.67;;;;;;;;;;5220381;28;20033;-73
2022/11/24 03:59:45;;;;;;;19.98;2.80;;;;;;;;;;5219688;28;20080;-73
2022/11/24 04:02:16;;;;;;;13.88;1.55;;;;;;;;;;5219717;28;20056;-73
2022/11/24 04:04:49;;;;;;;15.32;1.63;;;;;;;;;;5219812;28;20018;-73
2022/11/24 04:07:20;;;;;;;17.75;2.90;;;;;;;;;;5219818;28;20034;-73
2022/11/24 04:09:52;;;;;;;11.13;1.88;;;;;;;;;;5219576;28;20461;-73
2022/11/24 04:15:14;;;;;;;11.38;1.92;;;;;;;;;;5219570;28;20034;-72
2022/11/24 04:17:46;;;;;;;11.95;1.52;;;;;;;;;;5219437;28;20037;-72
2022/11/24 04:20:17;;;;;;;13.52;1.70;;;;;;;;;;5220143;28;20018;-73
2022/11/24 04:22:49;;;;;;;13.77;1.77;;;;;;;;;;5218571;28;20030;-73
2022/11/24 04:25:20;;;;;;;13.32;1.52;;;;;;;;;;5220012;28;20093;-73
2022/11/24 04:27:52;;;;;;;12.65;2.40;;;;;;;;;;5219584;28;20030;-72
2022/11/24 04:30:24;;;;;;;12.55;1.73;;;;;;;;;;5218919;28;20079;-72
2022/11/24 04:32:56;;;;;;;12.15;1.60;;;;;;;;;;5219411;28;20061;-72
2022/11/24 04:35:27;;;;;;;10.77;1.23;;;;;;;;;;5219454;28;20021;-72
2022/11/24 04:38:01;;;;;;;11.90;1.08;;;;;;;;;;5218820;28;20034;-72
2022/11/24 04:40:32;;;;;;;9.75;1.30;;;;;;;;;;5219572;28;20277;-72
2022/11/24 04:43:03;;;;;;;13.38;1.50;;;;;;;;;;5220060;28;20144;-72
2022/11/24 04:45:34;;;;;;;8.70;0.90;;;;;;;;;;5222848;28;20029;-73
2022/11/24 04:48:05;;;;;;;8.90;1.13;;;;;;;;;;5223814;28;20032;-72
2022/11/24 04:50:37;;;;;;;11.07;1.08;;;;;;;;;;5223001;28;20036;-71
2022/11/24 04:53:09;;;;;;;7.30;0.77;;;;;;;;;;5223659;28;20022;-72
2022/11/24 04:55:40;;;;;;;5.07;0.60;;;;;;;;;;5223167;28;20040;-72
2022/11/24 04:58:11;;;;;;;3.22;0.60;;;;;;;;;;5222880;28;20041;-72
2022/11/24 05:00:43;;;;;;;5.43;0.60;;;;;;;;;;5223078;28;20014;-72
2022/11/24 05:03:14;;;;;;;5.30;0.40;;;;;;;;;;5223943;28;20049;-73
2022/11/24 05:05:45;;;;;;;6.20;0.50;;;;;;;;;;5222295;28;20014;-72
2022/11/24 05:08:16;;;;;;;5.38;0.86;;;;;;;;;;5223594;28;20041;-72
2022/11/24 05:10:47;;;;;;;3.94;0.64;;;;;;;;;;5222759;28;20109;-72
2022/11/24 05:13:18;;;;;;;4.24;0.32;;;;;;;;;;5222930;28;20072;-72
2022/11/24 05:15:50;;;;;;;4.18;0.35;;;;;;;;;;5222883;28;20030;-72
2022/11/24 05:18:21;;;;;;;4.47;0.40;;;;;;;;;;5222834;28;20064;-73
2022/11/24 05:20:52;;;;;;;3.74;0.48;;;;;;;;;;5222599;28;20428;-72
2022/11/24 05:23:23;;;;;;;4.72;0.40;;;;;;;;;;5223087;28;20381;-72
2022/11/24 05:25:58;;;;;;;2.15;0.30;;;;;;;;;;5222221;28;20030;-72
2022/11/24 05:28:29;;;;;;;1.70;0.50;;;;;;;;;;5222943;28;20041;-72
2022/11/24 05:31:01;;;;;;;4.15;0.38;;;;;;;;;;5222859;28;20076;-72
2022/11/24 05:33:32;;;;;;;2.72;0.30;;;;;;;;;;5221741;28;20129;-73
2022/11/24 05:36:05;;;;;;;3.00;0.60;;;;;;;;;;5222772;28;20030;-72
2022/11/24 05:38:36;;;;;;;7.13;0.60;;;;;;;;;;5222811;28;20018;-72
2022/11/24 05:41:07;;;;;;;10.80;1.05;;;;;;;;;;5221919;28;20079;-72
2022/11/24 05:43:38;;;;;;;7.00;0.60;;;;;;;;;;5222384;28;20112;-72
2022/11/24 05:46:09;;;;;;;10.14;1.72;;;;;;;;;;5222643;28;20030;-72
2022/11/24 05:48:41;;;;;;;9.27;0.90;;;;;;;;;;5221553;28;20018;-72
2022/11/24 05:51:12;;;;;;;12.63;1.20;;;;;;;;;;5222830;28;20025;-72
2022/11/24 05:53:43;;;;;;;7.53;0.80;;;;;;;;;;5220776;28;20014;-72
2022/11/24 05:56:14;;;;;;;10.46;1.08;;;;;;;;;;5222540;28;20038;-73
2022/11/24 05:58:45;;;;;;;7.96;0.98;;;;;;;;;;5221685;28;20033;-73
2022/11/24 06:01:16;;;;;;;12.27;2.00;;;;;;;;;;5221884;28;20024;-73
2022/11/24 06:03:48;;;;;;;8.90;1.23;;;;;;;;;;5221952;28;20306;-73
2022/11/24 06:06:19;;;;;;;8.13;0.90;;;;;;;;;;5222686;28;20280;-73
2022/11/24 06:08:50;;;;;;;10.45;0.98;;;;;;;;;;5220923;28;20500;-73
2022/11/24 06:11:21;;;;;;;12.15;0.80;;;;;;;;;;5222234;28;20060;-72
2022/11/24 06:13:52;;;;;;;5.75;0.65;;;;;;;;;;5222104;28;20268;-72
2022/11/24 06:16:23;;;;;;;9.90;0.88;;;;;;;;;;5221236;28;20034;-72
2022/11/24 06:18:55;;;;;;;5.90;0.75;;;;;;;;;;5221918;28;20018;-73
2022/11/24 06:21:26;;;;;;;7.78;1.10;;;;;;;;;;5221813;28;20025;-72
2022/11/24 06:23:57;;;;;;;5.72;0.70;;;;;;;;;;5221002;28;20505;-74
2022/11/24 06:26:28;;;;;;;7.63;0.70;;;;;;;;;;5221870;28;20456;-72
2022/11/24 06:29:00;;;;;;;6.18;0.60;;;;;;;;;;5220961;28;20353;-73
2022/11/24 06:31:31;;;;;;;5.93;0.50;;;;;;;;;;5221352;28;20025;-73
2022/11/24 06:34:06;;;;;;;4.40;0.40;;;;;;;;;;5221478;28;20030;-73
2022/11/24 06:36:37;;;;;;;3.78;0.68;;;;;;;;;;5220840;28;20030;-74
2022/11/24 06:39:09;;;;;;;4.05;0.50;;;;;;;;;;5221581;28;20037;-73
2022/11/24 06:41:40;;;;;;;5.75;0.40;;;;;;;;;;5221158;28;20030;-74
2022/11/24 06:44:11;;;;;;;5.58;0.42;;;;;;;;;;5220847;28;20022;-73
2022/11/24 06:46:42;;;;;;;6.68;0.50;;;;;;;;;;5220954;28;20017;-74
2022/11/24 06:49:14;;;;;;;5.03;0.40;;;;;;;;;;5221601;28;20056;-73
2022/11/24 06:51:45;;;;;;;3.97;0.40;;;;;;;;;;5219960;28;20109;-73
2022/11/24 06:54:17;;;;;;;5.13;0.50;;;;;;;;;;5238019;28;20074;-73
2022/11/24 06:56:48;;;;;;;2.53;0.40;;;;;;;;;;5241173;28;20033;-73
2022/11/24 06:59:19;;;;;;;5.86;0.34;;;;;;;;;;5241126;28;20376;-72
2022/11/24 07:01:51;;;;;;;3.42;0.30;;;;;;;;;;5240956;28;20376;-72
2022/11/24 07:04:22;;;;;;;4.50;0.30;;;;;;;;;;5240761;28;20018;-72
2022/11/24 07:06:53;;;;;;;2.92;0.30;;;;;;;;;;5240278;28;20031;-72
2022/11/24 07:09:24;;;;;;;2.70;0.30;;;;;;;;;;5240901;28;20021;-72
2022/11/24 07:11:56;;;;;;;2.80;0.30;;;;;;;;;;5240181;28;20040;-72
2022/11/24 07:14:27;;;;;;;3.80;0.40;;;;;;;;;;5240801;28;20025;-73
2022/11/24 07:16:59;;;;;;;4.40;0.40;;;;;;;;;;5240914;28;20492;-72
2022/11/24 07:19:30;;;;;;;2.63;0.40;;;;;;;;;;5240151;28;20024;-75
2022/11/24 07:22:01;;;;;;;6.38;0.52;;;;;;;;;;5220290;28;20469;-73
2022/11/24 07:24:33;;;;;;;4.05;0.40;;;;;;;;;;5220102;28;20026;-72
2022/11/24 07:27:04;;;;;;;4.10;0.40;;;;;;;;;;5219508;28;20025;-72
2022/11/24 07:29:35;;;;;;;6.70;0.50;;;;;;;;;;5219947;28;20022;-73
2022/11/24 07:32:06;;;;;;;6.40;0.38;;;;;;;;;;5219351;28;20538;-75
2022/11/24 07:34:37;;;;;;;5.38;0.90;;;;;;;;;;5220000;28;20412;-74
2022/11/24 07:37:08;;;;;;;3.04;0.30;;;;;;;;;;5219876;28;20095;-72
2022/11/24 07:39:40;;;;;;;5.50;0.30;;;;;;;;;;5218923;28;20028;-73
2022/11/24 07:42:11;;;;;;;4.42;0.40;;;;;;;;;;5220379;28;20431;-73
2022/11/24 07:44:42;;;;;;;4.28;0.75;;;;;;;;;;5219374;28;20461;-73
2022/11/24 07:47:13;;;;;;;2.97;0.40;;;;;;;;;;5219843;28;20089;-73
2022/11/24 07:49:44;;;;;;;4.07;0.35;;;;;;;;;;5219847;28;20068;-73
2022/11/24 07:52:16;;;;;;;4.55;0.40;;;;;;;;;;5220700;28;20108;-73
2022/11/24 07:54:47;;;;;;;5.58;0.78;;;;;;;;;;5239702;28;20022;-73
2022/11/24 07:57:18;;;;;;;5.94;0.80;;;;;;;;;;5240478;28;20025;-73
2022/11/24 07:59:49;;;;;;;4.14;0.60;;;;;;;;;;5239814;28;20022;-72
2022/11/24 08:02:20;;;;;;;5.28;0.40;;;;;;;;;;5239699;28;20021;-73
2022/11/24 08:04:51;;;;;;;3.63;0.40;;;;;;;;;;5240354;28;20034;-72
2022/11/24 08:07:23;;;;;;;3.38;0.40;;;;;;;;;;5239458;28;20074;-75
2022/11/24 08:09:54;;;;;;;4.84;0.62;;;;;;;;;;5240153;28;20026;-71
2022/11/24 08:12:25;;;;;;;3.78;0.40;;;;;;;;;;5240398;28;20037;-75
2022/11/24 08:14:56;;;;;;;6.63;0.40;;;;;;;;;;5239314;28;20101;-75
2022/11/24 08:17:27;;;;;;;5.75;0.50;;;;;;;;;;5239658;28;20534;-75
2022/11/24 08:19:58;;;;;;;3.83;0.60;;;;;;;;;;5240131;28;20393;-74
2022/11/24 08:22:30;;;;;;;4.56;0.70;;;;;;;;;;5239248;28;20148;-75
2022/11/24 08:25:01;;;;;;;5.97;0.52;;;;;;;;;;5240332;28;20018;-74
2022/11/24 08:27:32;;;;;;;4.03;0.50;;;;;;;;;;5240140;28;20094;-75
2022/11/24 08:30:03;;;;;;;5.47;0.70;;;;;;;;;;5239334;28;20143;-76
2022/11/24 08:32:35;;;;;;;5.18;0.60;;;;;;;;;;5239417;28;20102;-74
2022/11/24 08:35:06;;;;;;;5.72;0.46;;;;;;;;;;5239889;28;20033;-75
2022/11/24 08:37:37;;;;;;;3.13;0.50;;;;;;;;;;5239170;28;20045;-74
2022/11/24 08:40:09;;;;;;;4.55;0.40;;;;;;;;;;5239748;28;20039;-75
2022/11/24 08:42:40;;;;;;;5.05;0.40;;;;;;;;;;5238985;28;20423;-74
2022/11/24 08:45:11;;;;;;;5.60;0.50;;;;;;;;;;5240036;28;20017;-75
2022/11/24 08:47:43;;;;;;;6.00;0.85;;;;;;;;;;5239672;28;20063;-74
2022/11/24 08:50:14;;;;;;;5.50;0.57;;;;;;;;;;5239572;28;20061;-73
2022/11/24 08:52:45;;;;;;;4.72;0.70;;;;;;;;;;5239594;28;20476;-74
2022/11/24 08:55:16;;;;;;;9.94;1.44;;;;;;;;;;5240004;28;20080;-73
2022/11/24 08:57:47;;;;;;;5.32;0.65;;;;;;;;;;5238670;28;20025;-75
2022/11/24 09:00:22;;;;;;;5.32;0.70;;;;;;;;;;5240040;28;20428;-74
2022/11/24 09:02:54;;;;;;;4.70;0.57;;;;;;;;;;5238590;28;20017;-74
2022/11/24 09:05:25;;;;;;;7.97;0.88;;;;;;;;;;5238470;28;20052;-74
2022/11/24 09:07:56;;;;;;;7.93;0.98;;;;;;;;;;5239655;28;20456;-74
2022/11/24 09:10:28;;;;;;;8.15;0.70;;;;;;;;;;5238459;28;20032;-75
2022/11/24 09:12:59;;;;;;;5.72;0.60;;;;;;;;;;5237438;28;20033;-74
2022/11/24 09:15:30;;;;;;;10.96;1.00;;;;;;;;;;5237631;28;20299;-74
2022/11/24 09:18:01;;;;;;;8.18;1.00;;;;;;;;;;5237200;28;20033;-74
2022/11/24 09:20:32;;;;;;;6.32;0.68;;;;;;;;;;5237972;28;20018;-73
2022/11/24 09:23:04;;;;;;;8.02;1.65;;;;;;;;;;5237889;28;20280;-74
2022/11/24 09:25:35;;;;;;;7.32;1.20;;;;;;;;;;5236722;28;20097;-74
2022/11/24 09:28:06;;;;;;;8.10;1.08;;;;;;;;;;5237460;28;20045;-74
2022/11/24 09:30:37;;;;;;;7.25;1.10;;;;;;;;;;5240346;28;20028;-74
2022/11/24 09:33:08;;;;;;;5.70;1.20;;;;;;;;;;5240173;28;20049;-74
2022/11/24 09:35:39;;;;;;;7.20;0.95;;;;;;;;;;5240492;28;20021;-74
2022/11/24 09:38:12;;;;;;;6.60;1.28;;;;;;;;;;5241880;28;20027;-74
2022/11/24 09:40:43;;;;;;;10.98;1.25;;;;;;;;;;5241717;28;20362;-74
2022/11/24 09:43:21;;;;;;;15.73;1.35;;;;;;;;;;5243407;28;20110;-74
2022/11/24 09:46:14;;;;;;;7.70;0.70;;;;;;;;;;5242270;28;20029;-74
2022/11/24 09:48:48;;;;;;;6.95;0.80;;;;;;;;;;5242875;28;20021;-74
2022/11/24 09:51:21;;;;;;;8.57;1.02;;;;;;;;;;5243470;28;20016;-74
2022/11/24 09:53:52;;;;;;;11.27;1.40;;;;;;;;;;5241810;28;20376;-74
2022/11/24 09:56:27;;;;;;;10.80;1.00;;;;;;;;;;5242706;28;20037;-73
2022/11/24 09:59:07;;;;;;;10.35;1.80;;;;;;;;;;5242986;28;20276;-74
2022/11/24 10:01:40;;;;;;;9.35;0.98;;;;;;;;;;5241746;28;20029;-74
2022/11/24 10:04:18;;;;;;;8.57;0.80;;;;;;;;;;5242773;28;20117;-74
2022/11/24 10:07:05;;;;;;;9.32;1.25;;;;;;;;;;5241335;28;20029;-74
2022/11/24 10:09:56;;;;;;;9.82;0.90;;;;;;;;;;5242487;28;20021;-74
2022/11/24 10:12:33;;;;;;;10.88;0.98;;;;;;;;;;5242596;28;20432;-74
2022/11/24 10:15:17;;;;;;;8.30;1.98;;;;;;;;;;5241521;28;20052;-73
2022/11/24 10:17:52;;;;;;;8.75;0.98;;;;;;;;;;5241650;28;20075;-73
2022/11/24 10:20:43;;;;;;;10.38;1.00;;;;;;;;;;5242062;28;20032;-72
2022/11/24 10:23:14;;;;;;;12.10;2.00;;;;;;;;;;5224481;28;20042;-73
2022/11/24 10:25:55;;;;;;;8.90;1.00;;;;;;;;;;5242110;28;20492;-74
2022/11/24 10:28:44;;;;;;;11.52;1.20;;;;;;;;;;5241467;28;20272;-74
2022/11/24 10:31:23;;;;;;;13.50;1.65;;;;;;;;;;5242550;28;20056;-74
2022/11/24 10:33:56;;;;;;;9.27;1.05;;;;;;;;;;5241709;28;20080;-74
2022/11/24 10:36:36;;;;;;;10.55;1.27;;;;;;;;;;5240934;28;20033;-73
2022/11/24 10:39:19;;;;;;;12.95;1.30;;;;;;;;;;5238777;28;20025;-74
2022/11/24 10:41:55;;;;;;;13.45;1.25;;;;;;;;;;5241332;28;20100;-74
2022/11/24 10:44:26;;;;;;;10.63;1.10;;;;;;;;;;5242042;28;20067;-74
2022/11/24 10:46:58;;;;;;;10.95;1.55;;;;;;;;;;5241809;28;20029;-74
2022/11/24 10:49:30;;;;;;;8.68;0.93;;;;;;;;;;5240928;28;20135;-74
2022/11/24 10:52:11;;;;;;;8.45;0.70;;;;;;;;;;5241892;28;20108;-75
2022/11/24 10:54:59;;;;;;;7.13;0.93;;;;;;;;;;5240797;28;20017;-74
2022/11/24 10:57:35;;;;;;;9.20;0.80;;;;;;;;;;5240908;28;20034;-73
2022/11/24 11:00:26;;;;;;;8.50;0.90;;;;;;;;;;5241364;28;20098;-74
2022/11/24 11:03:14;;;;;;;4.85;0.70;;;;;;;;;;5240438;28;20035;-74
2022/11/24 11:06:01;;;;;;;12.38;1.75;;;;;;;;;;5241175;28;20048;-74
2022/11/24 11:08:32;;;;;;;8.30;1.35;;;;;;;;;;5241156;28;20025;-75
2022/11/24 11:11:13;;;;;;;13.02;1.80;;;;;;;;;;5240407;28;20423;-75
2022/11/24 11:13:51;;;;;;;10.88;1.40;;;;;;;;;;5241107;28;20104;-74
2022/11/24 11:16:33;;;;;;;5.93;0.68;;;;;;;;;;5241243;28;20038;-74
2022/11/24 11:19:05;;;;;;;10.65;0.80;;;;;;;;;;5240242;28;20036;-74
2022/11/24 11:21:37;;;;;;;10.40;1.38;;;;;;;;;;5241020;28;20487;-74
2022/11/24 11:24:13;;;;;;;7.38;0.88;;;;;;;;;;5240233;28;20021;-74
2022/11/24 11:26:44;;;;;;;11.93;0.98;;;;;;;;;;5240760;28;20013;-74
2022/11/24 11:29:18;;;;;;;9.50;1.35;;;;;;;;;;5241194;28;20104;-74
2022/11/24 11:31:56;;;;;;;5.97;1.05;;;;;;;;;;5239565;28;20073;-74
2022/11/24 11:34:30;;;;;;;12.02;1.60;;;;;;;;;;5241061;28;20542;-74
2022/11/24 11:37:02;;;;;;;12.77;1.42;;;;;;;;;;5240764;28;20061;-74
2022/11/24 11:39:35;;;;;;;9.57;0.82;;;;;;;;;;5230784;28;20465;-73
2022/11/24 11:42:06;;;;;;;8.98;0.80;;;;;;;;;;5238411;28;20469;-73
2022/11/24 11:44:40;;;;;;;11.32;1.23;;;;;;;;;;5240848;28;20026;-74
2022/11/24 11:47:19;;;;;;;9.48;1.33;;;;;;;;;;5240381;28;20021;-74
2022/11/24 11:49:50;;;;;;;10.85;1.00;;;;;;;;;;5240316;28;20026;-74
2022/11/24 11:52:40;;;;;;;8.65;0.80;;;;;;;;;;5239351;28;20491;-73
2022/11/24 11:55:29;;;;;;;6.18;0.80;;;;;;;;;;5240997;28;20115;-73
2022/11/24 11:58:00;;;;;;;9.45;0.85;;;;;;;;;;5240489;28;20111;-74
2022/11/24 12:00:35;;;;;;;9.98;1.35;;;;;;;;;;5228487;28;20113;-75
2022/11/24 12:03:25;;;;;;;13.45;1.30;;;;;;;;;;5219715;28;20273;-75
2022/11/24 12:06:15;;;;;;;7.25;1.13;;;;;;;;;;5219950;28;20045;-74
2022/11/24 12:09:12;;;;;;;13.27;1.90;;;;;;;;;;5218449;28;20037;-74
2022/11/24 12:11:43;;;;;;;8.60;0.93;;;;;;;;;;5219397;28;20018;-74
2022/11/24 12:14:31;;;;;;;8.20;1.25;;;;;;;;;;5219408;28;20052;-74
2022/11/24 12:17:16;;;;;;;11.52;1.33;;;;;;;;;;5219623;28;20304;-73
2022/11/24 12:20:07;;;;;;;10.15;1.02;;;;;;;;;;5219272;28;20030;-74
2022/11/24 12:22:45;;;;;;;7.70;0.95;;;;;;;;;;5218878;28;20041;-74
2022/11/24 12:25:22;;;;;;;10.88;1.30;;;;;;;;;;5219752;28;20022;-75
2022/11/24 12:28:04;;;;;;;9.88;1.20;;;;;;;;;;5218707;28;20018;-75
2022/11/24 12:31:02;;;;;;;15.60;2.08;;;;;;;;;;5219706;28;20022;-75
2022/11/24 12:33:43;;;;;;;10.30;0.90;;;;;;;;;;5215232;28;20054;-75
2022/11/24 12:36:32;;;;;;;11.27;1.60;;;;;;;;;;5218934;28;20062;-75
2022/11/24 12:39:05;;;;;;;11.85;1.48;;;;;;;;;;5219668;28;20057;-75
2022/11/24 12:41:46;;;;;;;10.23;1.25;;;;;;;;;;5218557;28;20025;-74
2022/11/24 12:44:28;;;;;;;9.45;1.10;;;;;;;;;;5219738;28;20026;-75
2022/11/24 12:47:14;;;;;;;9.48;1.50;;;;;;;;;;5219279;28;20065;-74
2022/11/24 12:50:01;;;;;;;13.07;0.95;;;;;;;;;;5218457;28;20026;-75
2022/11/24 12:52:44;;;;;;;12.18;1.23;;;;;;;;;;5219259;28;20022;-75
2022/11/24 12:55:19;;;;;;;10.75;0.95;;;;;;;;;;5219412;28;20060;-75
2022/11/24 12:57:54;;;;;;;10.32;1.40;;;;;;;;;;5218214;28;20040;-75
2022/11/24 13:00:33;;;;;;;8.32;0.82;;;;;;;;;;5219408;28;20560;-75
2022/11/24 13:03:20;;;;;;;11.63;1.23;;;;;;;;;;5218225;28;20022;-75
2022/11/24 13:05:57;;;;;;;13.77;1.58;;;;;;;;;;5222312;28;20029;-75
2022/11/24 13:08:29;;;;;;;9.30;1.25;;;;;;;;;;5223468;28;20446;-75
2022/11/24 13:11:19;;;;;;;13.10;1.67;;;;;;;;;;5222566;28;20010;-75
2022/11/24 13:13:58;;;;;;;8.48;0.90;;;;;;;;;;5222780;28;20053;-75
2022/11/24 13:16:29;;;;;;;13.35;1.83;;;;;;;;;;5223115;28;20028;-75
2022/11/24 13:19:08;;;;;;;7.88;1.10;;;;;;;;;;5221997;28;20018;-75
2022/11/24 13:21:40;;;;;;;15.98;1.10;;;;;;;;;;5222610;28;20488;-74
2022/11/24 13:24:17;;;;;;;8.82;0.95;;;;;;;;;;5222391;28;20200;-73
2022/11/24 13:26:49;;;;;;;8.82;1.33;;;;;;;;;;5222408;28;20116;-74
2022/11/24 13:29:29;;;;;;;8.45;1.08;;;;;;;;;;5222972;28;20543;-72
2022/11/24 13:32:06;;;;;;;8.35;1.05;;;;;;;;;;5221792;28;20498;-71
2022/11/24 13:34:37;;;;;;;11.52;1.55;;;;;;;;;;5222563;28;20393;-70
2022/11/24 13:37:20;;;;;;;11.18;1.40;;;;;;;;;;5222315;28;20041;-74
2022/11/24 13:39:53;;;;;;;13.95;1.58;;;;;;;;;;5219950;28;20277;-76
2022/11/24 13:42:27;;;;;;;12.30;1.10;;;;;;;;;;5231173;28;20021;-76
2022/11/24 13:45:00;;;;;;;8.88;0.95;;;;;;;;;;5241386;28;20052;-74
2022/11/24 13:47:40;;;;;;;7.55;0.98;;;;;;;;;;5227295;28;20021;-75
2022/11/24 13:50:17;;;;;;;9.20;1.20;;;;;;;;;;5221449;28;20533;-75
2022/11/24 13:52:52;;;;;;;15.85;1.67;;;;;;;;;;5220194;28;20108;-75
2022/11/24 13:55:28;;;;;;;8.80;0.93;;;;;;;;;;5220929;28;20026;-76
2022/11/24 13:58:03;;;;;;;9.23;1.27;;;;;;;;;;5220035;28;20025;-76
2022/11/24 14:00:53;;;;;;;9.57;1.27;;;;;;;;;;5225569;28;20068;-75
2022/11/24 14:03:30;;;;;;;7.88;0.90;;;;;;;;;;5230552;28;20017;-75
2022/11/24 14:06:01;;;;;;;10.50;1.10;;;;;;;;;;5240137;28;20025;-75
2022/11/24 14:08:35;;;;;;;8.55;0.98;;;;;;;;;;5241775;28;20366;-74
2022/11/24 14:11:15;;;;;;;10.18;0.88;;;;;;;;;;5241235;28;20025;-75
2022/11/24 14:13:46;;;;;;;12.48;1.33;;;;;;;;;;5240480;28;20021;-74
2022/11/24 14:16:19;;;;;;;7.28;0.77;;;;;;;;;;5240700;28;20032;-75
2022/11/24 14:18:50;;;;;;;9.15;0.90;;;;;;;;;;5240951;28;20440;-75
2022/11/24 14:21:26;;;;;;;5.75;0.90;;;;;;;;;;5240533;28;20010;-76
2022/11/24 14:24:07;;;;;;;10.23;0.88;;;;;;;;;;5241089;28;20023;-75
2022/11/24 14:26:38;;;;;;;7.43;1.23;;;;;;;;;;5240814;28;20428;-75
2022/11/24 14:29:14;;;;;;;6.55;1.00;;;;;;;;;;5240233;28;20049;-74
2022/11/24 14:31:58;;;;;;;12.40;1.33;;;;;;;;;;5240721;28;20018;-75
2022/11/24 14:34:30;;;;;;;8.00;0.70;;;;;;;;;;5240566;28;20036;-74
2022/11/24 14:37:02;;;;;;;12.43;1.48;;;;;;;;;;5240668;28;20528;-75
2022/11/24 14:39:38;;;;;;;8.43;1.23;;;;;;;;;;5240975;28;20048;-75
2022/11/24 14:42:17;;;;;;;9.40;1.33;;;;;;;;;;5240580;28;20026;-75
2022/11/24 14:44:49;;;;;;;9.48;0.75;;;;;;;;;;5240417;28;20014;-75
2022/11/24 14:47:26;;;;;;;10.50;1.38;;;;;;;;;;5240963;28;20103;-75
2022/11/24 14:50:04;;;;;;;13.27;1.48;;;;;;;;;;5240067;28;20051;-75
2022/11/24 14:52:41;;;;;;;9.40;1.30;;;;;;;;;;5240781;28;20056;-76
2022/11/24 14:55:23;;;;;;;7.97;1.08;;;;;;;;;;5235084;28;20103;-74
2022/11/24 14:57:54;;;;;;;10.23;0.93;;;;;;;;;;5219430;28;20381;-75
2022/11/24 15:00:27;;;;;;;11.50;1.35;;;;;;;;;;5220039;28;20029;-76
2022/11/24 15:03:01;;;;;;;10.88;1.10;;;;;;;;;;5218952;28;20038;-74
2022/11/24 15:05:50;;;;;;;12.02;2.05;;;;;;;;;;5220029;28;20384;-77
2022/11/24 15:08:23;;;;;;;9.07;1.20;;;;;;;;;;5219335;28;20356;-75
2022/11/24 15:10:59;;;;;;;12.10;1.38;;;;;;;;;;5218682;28;20021;-73
2022/11/24 15:13:35;;;;;;;10.50;1.33;;;;;;;;;;5219783;28;20469;-75
2022/11/24 15:16:13;;;;;;;9.80;1.33;;;;;;;;;;5219599;28;20040;-75
2022/11/24 15:18:45;;;;;;;8.48;0.85;;;;;;;;;;5219071;28;20014;-75